Time;durP1;ratioP1;P1;durP2;ratioP2;P2;SDS_P1;SDS_P2;PMS_P1;PMS_P2;Temp;Humidity;BMP_temperature;BMP_pressure;BME280_temperature;BME280_humidity;BME280_pressure;Samples;Min_cycle;Max_cycle;Signal;HPM_P1;HPM_P2
2021/12/26 00:00:15;;;;;;;0.40;0.30;;;;;;;-8.86;84.88;100962.75;5032369;28;20617;-67
2021/12/26 00:02:42;;;;;;;2.38;2.25;;;;;;;-9.01;83.47;100963.41;5033189;28;20227;-67
2021/12/26 00:05:10;;;;;;;0.40;0.30;;;;;;;-9.20;81.99;100964.56;5032646;28;20204;-68
2021/12/26 00:07:37;;;;;;;0.40;0.30;;;;;;;-9.26;83.48;100954.72;5033015;28;20200;-67
2021/12/26 00:10:07;;;;;;;0.40;0.30;;;;;;;-9.25;83.46;100963.38;5032585;28;20197;-67
2021/12/26 00:12:34;;;;;;;0.40;0.30;;;;;;;-9.31;84.12;100956.19;5033360;28;20239;-68
2021/12/26 00:15:00;;;;;;;0.40;0.30;;;;;;;-9.32;83.23;100957.16;5032966;28;20235;-67
2021/12/26 00:17:27;;;;;;;0.40;0.40;;;;;;;-9.11;83.31;100962.78;5032961;28;20258;-68
2021/12/26 00:19:53;;;;;;;0.40;0.30;;;;;;;-9.30;83.51;100957.81;5032189;28;20251;-67
2021/12/26 00:22:20;;;;;;;0.40;0.30;;;;;;;-9.32;84.92;100951.94;5032664;28;20279;-67
2021/12/26 00:24:46;;;;;;;0.55;0.50;;;;;;;-9.22;85.81;100957.84;5032592;28;20713;-68
2021/12/26 00:27:15;;;;;;;0.40;0.30;;;;;;;-9.30;84.27;100957.81;5036247;28;20205;-67
2021/12/26 00:29:42;;;;;;;0.40;0.30;;;;;;;-9.28;83.09;100961.13;5035873;28;20204;-67
2021/12/26 00:32:09;;;;;;;0.40;0.30;;;;;;;-9.20;84.34;100969.00;5035742;28;20247;-68
2021/12/26 00:34:37;;;;;;;0.40;0.30;;;;;;;-9.23;83.55;100964.06;5035869;28;20197;-67
2021/12/26 00:37:04;;;;;;;1.27;1.27;;;;;;;-9.20;83.20;100963.75;5036309;28;20204;-67
2021/12/26 00:39:30;;;;;;;0.40;0.30;;;;;;;-9.16;82.00;100965.06;5036345;28;20201;-67
2021/12/26 00:41:57;;;;;;;0.40;0.30;;;;;;;-9.14;81.76;100955.22;5035854;28;20637;-67
2021/12/26 00:44:25;;;;;;;0.40;0.30;;;;;;;-9.11;81.47;100957.53;5035972;28;20207;-68
2021/12/26 00:46:53;;;;;;;0.40;0.30;;;;;;;-9.02;80.74;100956.53;5036370;28;20212;-67
2021/12/26 00:49:20;;;;;;;0.40;0.30;;;;;;;-9.08;80.70;100962.44;5035999;28;20242;-68
2021/12/26 00:51:47;;;;;;;0.40;0.40;;;;;;;-9.25;82.89;100959.00;5035557;28;20227;-67
2021/12/26 00:54:13;;;;;;;0.40;0.30;;;;;;;-9.36;83.31;100961.91;5036138;28;20591;-67
2021/12/26 00:56:40;;;;;;;0.40;0.30;;;;;;;-9.36;83.10;100961.09;5035170;28;20207;-67
2021/12/26 00:59:06;;;;;;;0.40;0.30;;;;;;;-9.44;82.94;100962.72;5035926;28;20200;-68
2021/12/26 01:01:34;;;;;;;0.40;0.30;;;;;;;-9.35;83.29;100962.72;5035755;28;20208;-67
2021/12/26 01:04:01;;;;;;;0.40;0.30;;;;;;;-9.30;83.50;100966.50;5035711;28;20204;-67
2021/12/26 01:06:28;;;;;;;0.40;0.30;;;;;;;-9.28;83.36;100961.94;5035251;28;20728;-67
2021/12/26 01:08:55;;;;;;;0.40;0.30;;;;;;;-9.33;81.97;100968.66;5035296;28;20200;-67
2021/12/26 01:11:34;;;;;;;0.40;0.30;;;;;;;-9.30;83.26;100963.88;5035631;28;20228;-67
2021/12/26 01:14:04;;;;;;;0.40;0.30;;;;;;;-9.24;83.26;100967.69;5035613;28;20733;-68
2021/12/26 01:16:30;;;;;;;0.40;0.30;;;;;;;-9.17;83.86;100966.03;5034946;28;20666;-67
2021/12/26 01:19:05;;;;;;;0.77;0.77;;;;;;;-9.28;83.10;100966.34;5035517;28;20205;-67
2021/12/26 01:21:32;;;;;;;0.40;0.30;;;;;;;-9.36;81.91;100969.78;5035253;28;20196;-66
2021/12/26 01:24:01;;;;;;;0.40;0.30;;;;;;;-9.44;81.31;100962.72;5035231;28;20674;-67
2021/12/26 01:26:29;;;;;;;0.40;0.30;;;;;;;-9.47;81.98;100967.47;5035222;28;20216;-67
2021/12/26 01:28:56;;;;;;;0.40;0.30;;;;;;;-9.08;84.46;100974.72;5035574;28;20201;-67
2021/12/26 01:31:24;;;;;;;0.40;0.30;;;;;;;-9.07;82.62;100977.19;5034941;28;20724;-66
2021/12/26 01:33:54;;;;;;;0.40;0.30;;;;;;;-9.31;81.66;100977.97;5034888;28;20203;-67
2021/12/26 01:36:22;;;;;;;0.40;0.30;;;;;;;-9.45;83.45;100986.47;5034476;28;20193;-67
2021/12/26 01:38:48;;;;;;;0.40;0.30;;;;;;;-9.42;83.57;100981.75;5034699;28;20612;-67
2021/12/26 01:41:17;;;;;;;0.40;0.30;;;;;;;-9.22;82.85;100987.50;5034812;28;20205;-68
2021/12/26 01:43:46;;;;;;;0.40;0.30;;;;;;;-9.12;82.37;100987.34;5015161;28;20240;-67
2021/12/26 01:46:13;;;;;;;9.90;9.20;;;;;;;-8.93;81.64;100989.66;5015605;28;20201;-67
2021/12/26 01:48:40;;;;;;;0.40;0.30;;;;;;;-8.88;80.86;100983.94;5033934;28;20250;-67
2021/12/26 01:51:06;;;;;;;0.40;0.30;;;;;;;-9.07;81.06;100984.22;5034620;28;20278;-68
2021/12/26 01:53:37;;;;;;;0.40;0.30;;;;;;;-9.18;80.45;100978.31;5035033;28;20217;-67
2021/12/26 01:56:06;;;;;;;0.40;0.30;;;;;;;-9.16;80.97;100980.81;5034818;28;20231;-67
2021/12/26 01:58:35;;;;;;;0.40;0.30;;;;;;;-9.11;80.21;100981.13;5034815;28;20207;-67
2021/12/26 02:01:05;;;;;;;0.40;0.30;;;;;;;-9.30;81.42;100982.22;5034271;28;20207;-68
2021/12/26 02:03:33;;;;;;;0.40;0.30;;;;;;;-9.28;80.99;100984.72;5034723;28;20228;-67
2021/12/26 02:05:59;;;;;;;0.40;0.30;;;;;;;-9.53;82.42;100992.50;5034380;28;20196;-67
2021/12/26 02:08:26;;;;;;;0.40;0.30;;;;;;;-9.65;81.25;100988.53;5034342;28;20200;-67
2021/12/26 02:10:54;;;;;;;0.40;0.40;;;;;;;-9.55;82.05;100991.06;5034554;28;20204;-67
2021/12/26 02:13:20;;;;;;;0.38;0.30;;;;;;;-9.55;83.37;100984.00;5035192;28;20209;-67
2021/12/26 02:15:47;;;;;;;1.60;1.50;;;;;;;-9.43;82.16;100980.09;5035176;28;20216;-67
2021/12/26 02:18:14;;;;;;;0.40;0.30;;;;;;;-9.41;80.96;100988.63;5034321;28;20204;-67
2021/12/26 02:20:48;;;;;;;0.40;0.30;;;;;;;-9.67;81.76;100985.28;5034373;28;20200;-67
2021/12/26 02:23:20;;;;;;;0.40;0.30;;;;;;;-9.70;82.73;100983.78;5033911;28;20220;-67
2021/12/26 02:28:31;;;;;;;0.40;0.30;;;;;;;-9.56;83.74;100977.13;5033803;28;20323;-68
2021/12/26 02:30:59;;;;;;;0.40;0.30;;;;;;;-9.50;84.98;100979.09;5034336;28;20262;-68
2021/12/26 02:33:25;;;;;;;0.40;0.30;;;;;;;-9.48;83.89;100977.13;5033796;28;20227;-67
2021/12/26 02:35:54;;;;;;;0.40;0.30;;;;;;;-9.31;81.81;100971.91;5033955;28;20204;-67
2021/12/26 02:38:21;;;;;;;0.40;0.30;;;;;;;-9.30;79.21;100969.13;5014356;28;20239;-68
2021/12/26 02:40:51;;;;;;;0.40;0.30;;;;;;;-9.55;79.28;100963.03;5014553;28;20205;-68
2021/12/26 02:43:19;;;;;;;0.40;0.30;;;;;;;-9.74;81.64;100965.91;5032948;28;20227;-67
2021/12/26 02:45:47;;;;;;;0.40;0.30;;;;;;;-9.78;81.57;100973.28;5034347;28;20208;-67
2021/12/26 02:48:13;;;;;;;0.40;0.30;;;;;;;-9.85;81.98;100963.59;5033478;28;20204;-68
2021/12/26 02:50:42;;;;;;;8.95;8.32;;;;;;;-9.75;82.66;100961.66;5033829;28;20275;-67
2021/12/26 02:53:20;;;;;;;0.40;0.30;;;;;;;-9.64;82.31;100956.13;5033231;28;20231;-67
2021/12/26 02:55:47;;;;;;;0.40;0.30;;;;;;;-9.56;80.49;100953.53;5033262;28;20642;-68
2021/12/26 02:58:14;;;;;;;0.40;0.30;;;;;;;-9.52;80.21;100948.78;5033356;28;20201;-68
2021/12/26 03:00:45;;;;;;;0.40;0.30;;;;;;;-9.40;79.23;100950.91;5033953;28;20204;-68
2021/12/26 03:03:12;;;;;;;0.40;0.30;;;;;;;-9.43;78.27;100958.28;5032098;28;20221;-68
2021/12/26 03:05:41;;;;;;;0.40;0.30;;;;;;;-9.72;80.84;100958.72;5033498;28;20643;-68
2021/12/26 03:08:11;;;;;;;0.40;0.30;;;;;;;-9.84;81.21;100970.47;5033131;28;20212;-68
2021/12/26 03:10:39;;;;;;;0.40;0.30;;;;;;;-9.72;80.78;100961.34;5033522;28;20205;-68
2021/12/26 03:13:09;;;;;;;18.95;17.05;;;;;;;-9.78;80.04;100964.59;5033052;28;20243;-68
2021/12/26 03:15:37;;;;;;;2.75;2.65;;;;;;;-9.99;82.04;100962.41;5033044;28;20193;-68
2021/12/26 03:18:04;;;;;;;0.40;0.30;;;;;;;-9.86;84.14;100968.03;5033907;28;20212;-68
2021/12/26 03:20:37;;;;;;;0.40;0.40;;;;;;;-9.91;80.98;100965.88;5032990;28;20669;-68
2021/12/26 03:23:04;;;;;;;0.40;0.30;;;;;;;-9.92;81.90;100960.78;5033130;28;20256;-68
2021/12/26 03:25:33;;;;;;;0.40;0.30;;;;;;;-9.91;81.88;100957.19;5033452;28;20705;-68
2021/12/26 03:28:00;;;;;;;3.80;3.60;;;;;;;-9.74;80.76;100950.19;5033594;28;20228;-68
2021/12/26 03:30:29;;;;;;;0.40;0.30;;;;;;;-9.61;79.97;100944.50;5033391;28;20266;-68
2021/12/26 03:32:57;;;;;;;0.40;0.30;;;;;;;-9.67;78.59;100943.34;5032578;28;20235;-68
2021/12/26 03:35:26;;;;;;;0.40;0.30;;;;;;;-9.94;79.61;100947.84;5033190;28;20212;-68
2021/12/26 03:37:53;;;;;;;0.40;0.30;;;;;;;-10.06;81.88;100946.47;5032935;28;20204;-68
2021/12/26 03:40:19;;;;;;;0.40;0.30;;;;;;;-10.03;80.74;100955.84;5033205;28;20208;-68
2021/12/26 03:42:47;;;;;;;0.40;0.30;;;;;;;-10.16;82.24;100946.63;5032563;28;20228;-68
2021/12/26 03:45:14;;;;;;;0.40;0.30;;;;;;;-10.11;82.16;100946.13;5033092;28;20204;-67
2021/12/26 03:47:41;;;;;;;0.40;0.30;;;;;;;-10.22;81.01;100955.09;5032705;28;20716;-67
2021/12/26 03:50:09;;;;;;;0.40;0.30;;;;;;;-10.26;81.23;100945.94;5032790;28;20231;-67
2021/12/26 03:52:36;;;;;;;0.40;0.30;;;;;;;-10.33;81.85;100950.16;5032761;28;20228;-68
2021/12/26 03:55:03;;;;;;;0.40;0.30;;;;;;;-10.31;81.71;100947.38;5032907;28;20243;-68
2021/12/26 03:57:29;;;;;;;0.40;0.30;;;;;;;-10.22;81.08;100954.28;5033025;28;20579;-68
2021/12/26 03:59:57;;;;;;;0.40;0.35;;;;;;;-10.31;81.75;100953.47;5031983;28;20204;-68
2021/12/26 04:02:24;;;;;;;0.40;0.30;;;;;;;-10.24;82.24;100953.63;5037005;28;20216;-67
2021/12/26 04:04:50;;;;;;;0.40;0.30;;;;;;;-10.22;80.92;100951.66;5037275;28;20257;-67
2021/12/26 04:07:17;;;;;;;0.40;0.30;;;;;;;-10.15;82.49;100957.91;5036719;28;20204;-67
2021/12/26 04:09:43;;;;;;;0.40;0.30;;;;;;;-10.09;83.37;100951.22;5037004;28;20589;-68
2021/12/26 04:12:11;;;;;;;0.40;0.30;;;;;;;-10.06;83.73;100950.91;5036409;28;20228;-68
2021/12/26 04:14:37;;;;;;;0.40;0.30;;;;;;;-10.08;83.05;100950.25;5036795;28;20207;-68
2021/12/26 04:17:05;;;;;;;0.40;0.30;;;;;;;-10.11;80.73;100948.75;5036182;28;20670;-68
2021/12/26 04:19:32;;;;;;;0.30;0.30;;;;;;;-10.01;80.37;100948.63;5036401;28;20205;-68
2021/12/26 04:21:58;;;;;;;0.40;0.30;;;;;;;-9.97;80.62;100952.56;5036442;28;20220;-68
2021/12/26 04:24:25;;;;;;;0.40;0.30;;;;;;;-10.18;80.51;100958.22;5036610;28;20546;-68
2021/12/26 04:26:51;;;;;;;0.40;0.30;;;;;;;-10.27;81.43;100953.94;5035994;28;20211;-68
2021/12/26 04:29:18;;;;;;;0.40;0.30;;;;;;;-10.20;82.16;100950.53;5036498;28;20204;-68
2021/12/26 04:31:44;;;;;;;0.40;0.30;;;;;;;-10.28;81.99;100953.13;5036296;28;20593;-68
2021/12/26 04:34:12;;;;;;;0.40;0.30;;;;;;;-10.26;82.85;100953.00;5036302;28;20196;-68
2021/12/26 04:36:38;;;;;;;0.40;0.30;;;;;;;-10.25;80.91;100963.28;5036470;28;20204;-68
2021/12/26 04:41:33;;;;;;;0.40;0.30;;;;;;;-10.32;82.32;100962.25;5034483;28;20212;-66
2021/12/26 04:43:59;;;;;;;0.40;0.30;;;;;;;-10.17;81.79;100959.88;5035655;28;20205;-65
2021/12/26 04:46:26;;;;;;;0.40;0.30;;;;;;;-10.14;82.63;100949.06;5036675;28;20674;-66
2021/12/26 04:48:52;;;;;;;0.40;0.35;;;;;;;-10.14;81.19;100951.69;5037705;28;20228;-67
2021/12/26 04:51:20;;;;;;;0.40;0.30;;;;;;;-10.26;81.67;100945.13;5035465;28;20696;-66
2021/12/26 04:53:46;;;;;;;0.40;0.30;;;;;;;-10.33;81.54;100944.09;5035874;28;20235;-66
2021/12/26 04:56:13;;;;;;;0.40;0.30;;;;;;;-10.23;82.14;100945.59;5035654;28;20204;-67
2021/12/26 04:58:40;;;;;;;0.40;0.30;;;;;;;-10.22;82.65;100941.19;5035768;28;20228;-66
2021/12/26 05:01:06;;;;;;;0.40;0.30;;;;;;;-10.20;83.95;100934.00;5035201;28;20205;-67
2021/12/26 05:03:33;;;;;;;0.40;0.30;;;;;;;-10.24;84.35;100932.69;5035922;28;20228;-67
2021/12/26 05:06:00;;;;;;;0.40;0.30;;;;;;;-10.18;83.42;100926.78;5035436;28;20208;-66
2021/12/26 05:08:28;;;;;;;0.40;0.30;;;;;;;-10.06;83.14;100938.63;5035609;28;20239;-67
2021/12/26 05:10:55;;;;;;;0.40;0.30;;;;;;;-10.14;82.86;100930.72;5035424;28;20200;-68
2021/12/26 05:13:22;;;;;;;0.40;0.30;;;;;;;-10.02;81.22;100939.94;5035275;28;20251;-67
2021/12/26 05:15:49;;;;;;;0.40;0.30;;;;;;;-10.01;79.96;100940.78;5035139;28;20716;-66
2021/12/26 05:18:15;;;;;;;0.40;0.30;;;;;;;-10.16;80.17;100936.13;5035104;28;20224;-66
2021/12/26 05:20:42;;;;;;;0.40;0.30;;;;;;;-10.21;80.84;100942.84;5035381;28;20201;-65
2021/12/26 05:23:08;;;;;;;0.40;0.30;;;;;;;-10.12;80.52;100936.66;5035134;28;20204;-66
2021/12/26 05:25:36;;;;;;;0.40;0.30;;;;;;;-10.23;81.02;100937.72;5035419;28;20200;-65
2021/12/26 05:28:03;;;;;;;0.40;0.30;;;;;;;-10.30;80.70;100939.38;5035015;28;20228;-65
2021/12/26 05:30:30;;;;;;;0.40;0.30;;;;;;;-10.19;80.75;100943.47;5035424;28;20239;-65
2021/12/26 05:32:57;;;;;;;0.40;0.30;;;;;;;-10.08;79.46;100932.75;5034926;28;20604;-66
2021/12/26 05:35:24;;;;;;;0.40;0.32;;;;;;;-10.04;78.60;100941.94;5035248;28;20208;-64
2021/12/26 05:37:50;;;;;;;0.40;0.30;;;;;;;-10.14;79.05;100943.00;5034999;28;20216;-65
2021/12/26 05:40:17;;;;;;;0.40;0.30;;;;;;;-10.09;78.62;100940.72;5034467;28;20221;-65
2021/12/26 05:42:45;;;;;;;0.40;0.30;;;;;;;-10.10;78.91;100936.47;5034920;28;20189;-66
2021/12/26 05:45:13;;;;;;;0.40;0.30;;;;;;;-10.25;81.08;100938.91;5033865;28;20193;-63
2021/12/26 05:47:41;;;;;;;0.40;0.30;;;;;;;-10.29;78.91;100937.59;5034199;28;20258;-65
2021/12/26 05:50:09;;;;;;;0.40;0.30;;;;;;;-10.42;79.23;100941.44;5034361;28;20666;-66
2021/12/26 05:52:36;;;;;;;0.35;0.30;;;;;;;-10.42;80.27;100940.63;5034785;28;20647;-66
2021/12/26 05:55:04;;;;;;;0.40;0.30;;;;;;;-10.52;80.16;100940.75;5034439;28;20196;-65
2021/12/26 05:57:31;;;;;;;0.40;0.30;;;;;;;-10.53;79.85;100936.50;5034448;28;20579;-65
2021/12/26 05:59:59;;;;;;;0.40;0.30;;;;;;;-10.61;80.99;100931.19;5034499;28;20212;-66
2021/12/26 06:02:25;;;;;;;0.40;0.30;;;;;;;-10.51;81.04;100925.84;5034234;28;20208;-65
2021/12/26 06:04:52;;;;;;;0.40;0.30;;;;;;;-10.52;80.47;100935.50;5034212;28;20204;-65
2021/12/26 06:07:18;;;;;;;0.40;0.30;;;;;;;-10.44;80.82;100935.56;5034370;28;20212;-67
2021/12/26 06:09:45;;;;;;;0.40;0.30;;;;;;;-10.46;81.36;100936.69;5034226;28;20224;-65
2021/12/26 06:12:11;;;;;;;1.15;1.15;;;;;;;-10.59;79.92;100937.09;5034058;28;20650;-65
2021/12/26 06:14:38;;;;;;;0.40;0.30;;;;;;;-10.55;79.68;100938.44;5033848;28;20666;-65
2021/12/26 06:17:06;;;;;;;0.40;0.30;;;;;;;-10.51;80.48;100937.13;5034168;28;20204;-66
2021/12/26 06:19:32;;;;;;;0.40;0.35;;;;;;;-10.52;79.70;100942.53;5034255;28;20229;-64
2021/12/26 06:21:59;;;;;;;0.30;0.30;;;;;;;-10.45;79.32;100935.69;5034558;28;20208;-65
2021/12/26 06:24:25;;;;;;;0.40;0.40;;;;;;;-10.22;79.22;100941.19;5033292;28;20196;-65
2021/12/26 06:26:51;;;;;;;0.40;0.30;;;;;;;-10.14;79.06;100943.81;5034527;28;20663;-65
2021/12/26 06:29:18;;;;;;;0.35;0.25;;;;;;;-10.10;78.81;100942.53;5033753;28;20568;-62
2021/12/26 06:31:44;;;;;;;0.40;0.30;;;;;;;-10.20;78.92;100947.09;5034192;28;20204;-65
2021/12/26 06:34:12;;;;;;;0.30;0.30;;;;;;;-10.39;80.15;100935.09;5033608;28;20274;-65
2021/12/26 06:36:38;;;;;;;0.40;0.30;;;;;;;-10.42;79.85;100936.22;5033331;28;20681;-65
2021/12/26 06:39:05;;;;;;;0.40;0.30;;;;;;;-10.30;80.64;100939.38;5033726;28;20232;-66
2021/12/26 06:41:33;;;;;;;0.40;0.30;;;;;;;-10.30;79.87;100933.34;5033404;28;20581;-66
2021/12/26 06:43:59;;;;;;;0.40;0.30;;;;;;;-10.30;78.56;100933.34;5033692;28;20254;-67
2021/12/26 06:46:26;;;;;;;0.40;0.30;;;;;;;-10.39;77.21;100932.47;5033797;28;20201;-65
2021/12/26 06:48:53;;;;;;;0.30;0.30;;;;;;;-10.62;78.35;100933.94;5033453;28;20224;-66
2021/12/26 06:51:21;;;;;;;0.40;0.30;;;;;;;-10.73;79.81;100937.66;5033798;28;20208;-66
2021/12/26 06:53:47;;;;;;;0.40;0.30;;;;;;;-10.70;80.76;100937.38;5033492;28;20230;-66
2021/12/26 06:56:14;;;;;;;0.40;0.30;;;;;;;-10.64;81.22;100935.91;5033436;28;20208;-66
2021/12/26 06:58:40;;;;;;;0.40;0.30;;;;;;;-10.66;78.79;100935.25;5033282;28;20623;-65
2021/12/26 07:01:06;;;;;;;0.30;0.30;;;;;;;-10.64;79.82;100936.72;5033033;28;20220;-67
2021/12/26 07:03:33;;;;;;;0.40;0.30;;;;;;;-10.63;79.12;100932.31;5033600;28;20208;-65
2021/12/26 07:05:59;;;;;;;0.40;0.30;;;;;;;-10.61;79.53;100938.22;5033222;28;20201;-65
2021/12/26 07:08:27;;;;;;;0.40;0.30;;;;;;;-10.71;78.76;100938.34;5033250;28;20740;-66
2021/12/26 07:10:54;;;;;;;0.40;0.30;;;;;;;-10.82;80.38;100939.41;5033062;28;20204;-66
2021/12/26 07:13:20;;;;;;;0.40;0.30;;;;;;;-10.79;79.84;100938.28;5033385;28;20640;-65
2021/12/26 07:15:47;;;;;;;0.40;0.30;;;;;;;-10.89;80.23;100943.59;5033151;28;20201;-65
2021/12/26 07:18:13;;;;;;;0.30;0.30;;;;;;;-10.80;80.09;100947.09;5032271;28;20224;-65
2021/12/26 07:20:40;;;;;;;0.30;0.30;;;;;;;-10.70;79.62;100942.59;5033135;28;20263;-65
2021/12/26 07:23:07;;;;;;;0.30;0.30;;;;;;;-10.72;79.15;100955.00;5033582;28;20197;-66
2021/12/26 07:25:34;;;;;;;0.40;0.30;;;;;;;-10.74;79.92;100949.09;5032965;28;20205;-66
2021/12/26 07:28:01;;;;;;;0.40;0.30;;;;;;;-10.90;80.52;100947.19;5033121;28;20224;-65
2021/12/26 07:30:27;;;;;;;0.40;0.30;;;;;;;-10.90;81.11;100951.59;5032806;28;20200;-65
2021/12/26 07:32:54;;;;;;;0.40;0.30;;;;;;;-10.77;80.34;100959.88;5033155;28;20220;-65
2021/12/26 07:35:20;;;;;;;0.40;0.30;;;;;;;-10.45;79.71;100964.47;5031996;28;20208;-65
2021/12/26 07:37:47;;;;;;;0.40;0.30;;;;;;;-10.48;81.49;100959.56;5033232;28;20207;-65
2021/12/26 07:40:14;;;;;;;0.30;0.30;;;;;;;-10.54;82.23;100963.59;5032275;28;20204;-65
2021/12/26 07:42:42;;;;;;;0.30;0.30;;;;;;;-10.52;81.56;100966.09;5031940;28;20208;-65
2021/12/26 07:45:09;;;;;;;0.40;0.30;;;;;;;-10.49;79.73;100964.00;5032290;28;20211;-67
2021/12/26 07:47:36;;;;;;;0.40;0.30;;;;;;;-10.57;81.13;100969.16;5031437;28;20688;-65
2021/12/26 07:50:02;;;;;;;0.45;0.45;;;;;;;-10.59;81.13;100972.91;5032251;28;20209;-67
2021/12/26 07:52:33;;;;;;;0.30;0.30;;;;;;;-10.54;81.27;100968.03;5031716;28;20211;-67
2021/12/26 07:55:01;;;;;;;0.40;0.30;;;;;;;-10.61;81.00;100980.09;5032448;28;20213;-64
2021/12/26 07:57:27;;;;;;;0.40;0.30;;;;;;;-10.63;81.89;100985.47;5031427;28;20586;-65
2021/12/26 07:59:55;;;;;;;0.40;0.30;;;;;;;-10.66;81.68;100979.75;5031944;28;20220;-64
2021/12/26 08:02:21;;;;;;;0.40;0.30;;;;;;;-10.53;81.18;100980.97;5030994;28;20662;-66
2021/12/26 08:04:49;;;;;;;0.50;0.50;;;;;;;-10.39;81.66;100981.38;5032070;28;20208;-70
2021/12/26 08:07:15;;;;;;;0.40;0.40;;;;;;;-10.30;82.69;100981.28;5031602;28;20216;-73
2021/12/26 08:09:42;;;;;;;0.30;0.30;;;;;;;-10.25;83.31;100978.19;5032041;28;20228;-69
2021/12/26 08:12:09;;;;;;;0.40;0.30;;;;;;;-10.22;83.68;100978.66;5031387;28;20212;-69
2021/12/26 08:14:36;;;;;;;0.40;0.30;;;;;;;-10.17;84.66;100986.06;5031782;28;20221;-71
2021/12/26 08:17:04;;;;;;;0.30;0.30;;;;;;;-10.10;84.02;100983.63;5031854;28;20208;-70
2021/12/26 08:19:30;;;;;;;0.40;0.30;;;;;;;-10.11;83.65;100982.81;5031313;28;20236;-74
2021/12/26 08:21:57;;;;;;;0.40;0.30;;;;;;;-10.11;82.92;100982.81;5027795;28;20198;-67
2021/12/26 08:24:26;;;;;;;0.40;0.30;;;;;;;-10.08;82.93;100979.06;5031029;28;20197;-68
2021/12/26 08:26:53;;;;;;;0.40;0.30;;;;;;;-10.11;83.75;100980.19;5031772;28;20196;-66
2021/12/26 08:29:21;;;;;;;0.40;0.30;;;;;;;-9.79;82.95;100981.28;5030092;28;20220;-68
2021/12/26 08:31:48;;;;;;;1.65;1.55;;;;;;;-9.71;83.11;100986.56;5031387;28;20215;-69
2021/12/26 08:34:21;;;;;;;0.40;0.40;;;;;;;-9.76;85.69;100988.84;5031488;28;20217;-67
2021/12/26 08:36:58;;;;;;;0.30;0.30;;;;;;;-9.62;86.30;100997.91;5031164;28;20258;-68
2021/12/26 08:39:25;;;;;;;0.40;0.30;;;;;;;-9.55;87.18;100996.28;4994947;28;1019133;-66
2021/12/26 08:41:52;;;;;;;0.40;0.30;;;;;;;-9.45;87.09;100997.78;5032786;28;20193;-66
2021/12/26 08:44:19;;;;;;;0.40;0.30;;;;;;;-9.26;87.37;100999.28;5031384;28;20197;-64
2021/12/26 08:46:46;;;;;;;0.40;0.30;;;;;;;-9.13;86.61;101001.44;5032845;28;20196;-64
2021/12/26 08:49:13;;;;;;;0.40;0.30;;;;;;;-9.02;86.75;100998.53;5035569;28;20299;-65
2021/12/26 08:51:42;;;;;;;0.40;0.30;;;;;;;-8.95;87.77;100990.78;5035362;28;20203;-65
2021/12/26 08:54:08;;;;;;;0.40;0.30;;;;;;;-8.82;88.70;100987.69;5035654;28;20230;-66
2021/12/26 08:56:35;;;;;;;0.40;0.30;;;;;;;-8.66;89.32;100983.25;5035692;28;20250;-66
2021/12/26 08:59:02;;;;;;;0.40;0.30;;;;;;;-8.46;89.85;100990.75;5031894;28;20228;-67
2021/12/26 09:01:28;;;;;;;0.40;0.30;;;;;;;-8.20;89.22;101001.03;5034890;28;20196;-66
2021/12/26 09:03:55;;;;;;;0.40;0.30;;;;;;;-8.08;91.15;100991.81;5035684;28;20244;-65
2021/12/26 09:06:22;;;;;;;0.40;0.30;;;;;;;-7.91;91.28;101001.28;5035816;28;20296;-67
2021/12/26 09:08:51;;;;;;;0.40;0.40;;;;;;;-7.74;92.89;101009.13;5034660;28;20220;-69
2021/12/26 09:11:18;;;;;;;0.40;0.30;;;;;;;-7.51;92.56;101007.34;5035409;28;20204;-68
2021/12/26 09:13:46;;;;;;;0.40;0.30;;;;;;;-7.32;93.74;101007.91;5034752;28;20736;-65
2021/12/26 09:16:13;;;;;;;0.40;0.30;;;;;;;-7.20;94.59;100996.00;5034273;28;20192;-67
2021/12/26 09:18:40;;;;;;;0.40;0.30;;;;;;;-7.05;95.27;101002.13;5034937;28;20220;-66
2021/12/26 09:21:06;;;;;;;0.40;0.30;;;;;;;-6.84;95.26;101000.66;5034990;28;20208;-68
2021/12/26 09:23:33;;;;;;;0.40;0.40;;;;;;;-6.66;95.16;100998.53;5033370;28;20601;-67
2021/12/26 09:26:01;;;;;;;0.40;0.30;;;;;;;-6.42;95.12;101005.38;5035160;28;20616;-67
2021/12/26 09:28:28;;;;;;;0.40;0.30;;;;;;;-6.27;95.47;101003.63;5034381;28;20223;-67
2021/12/26 09:30:55;;;;;;;0.40;0.30;;;;;;;-6.15;95.68;100993.44;5034603;28;20212;-65
2021/12/26 09:33:21;;;;;;;0.40;0.30;;;;;;;-5.98;95.70;101002.78;5034383;28;20196;-67
2021/12/26 09:35:51;;;;;;;0.85;0.85;;;;;;;-5.85;95.71;101002.94;5034612;28;20197;-68
2021/12/26 09:38:18;;;;;;;0.40;0.30;;;;;;;-5.81;95.62;101000.75;5035532;28;20252;-69
2021/12/26 09:40:45;;;;;;;0.40;0.30;;;;;;;-5.73;94.97;100998.03;5034786;28;20220;-70
2021/12/26 09:43:13;;;;;;;0.40;0.30;;;;;;;-5.63;94.70;101001.19;5034631;28;20204;-67
2021/12/26 09:45:40;;;;;;;0.40;0.30;;;;;;;-5.50;94.57;101003.16;5034265;28;20201;-66
2021/12/26 09:48:07;;;;;;;0.40;0.30;;;;;;;-5.38;94.38;100999.06;5033716;28;20216;-67
2021/12/26 09:50:33;;;;;;;1.95;1.85;;;;;;;-5.25;93.94;100995.75;5034260;28;20192;-67
2021/12/26 09:53:00;;;;;;;0.40;0.30;;;;;;;-5.20;93.87;101000.47;5034247;28;20200;-69
2021/12/26 09:55:28;;;;;;;0.40;0.30;;;;;;;-5.15;93.94;100998.06;5034160;28;20286;-67
2021/12/26 09:57:55;;;;;;;0.40;0.30;;;;;;;-5.02;94.00;101003.50;5033432;28;20231;-67
2021/12/26 10:00:27;;;;;;;0.40;0.30;;;;;;;-4.91;93.49;101000.34;5033762;28;20241;-65
2021/12/26 10:03:16;;;;;;;0.40;0.30;;;;;;;-4.82;93.79;100998.41;5014954;28;20209;-68
2021/12/26 10:06:01;;;;;;;0.40;0.30;;;;;;;-4.76;93.78;100992.34;5031844;28;20197;-66
2021/12/26 10:08:28;;;;;;;0.40;0.30;;;;;;;-4.66;94.14;100992.03;5034179;28;20471;-67
2021/12/26 10:11:10;;;;;;;0.40;0.30;;;;;;;-4.63;94.35;100987.19;5033726;28;20556;-67
2021/12/26 10:13:42;;;;;;;0.40;0.30;;;;;;;-4.45;94.28;100978.78;5034037;28;20192;-67
2021/12/26 10:16:11;;;;;;;0.40;0.30;;;;;;;-4.33;93.97;100985.16;5033915;28;20189;-67
2021/12/26 10:18:39;;;;;;;0.60;0.30;;;;;;;-4.28;93.19;100974.00;5033881;28;20995;-67
2021/12/26 10:21:31;;;;;;;0.40;0.30;;;;;;;-4.17;92.92;100984.03;5033851;28;20203;-68
2021/12/26 10:24:01;;;;;;;0.40;0.30;;;;;;;-4.07;92.01;100970.47;5031256;28;20206;-69
2021/12/26 10:26:30;;;;;;;0.40;0.30;;;;;;;-4.02;90.94;100970.72;5031870;28;20553;-67
2021/12/26 10:29:08;;;;;;;0.40;0.30;;;;;;;-3.95;90.02;100978.66;5034043;28;20463;-68
2021/12/26 10:31:36;;;;;;;0.40;0.37;;;;;;;-3.89;88.93;100962.03;5029792;28;20204;-67
2021/12/26 10:34:03;;;;;;;0.40;0.30;;;;;;;-3.78;87.76;100958.00;5014251;28;20480;-67
2021/12/26 10:36:30;;;;;;;0.40;0.30;;;;;;;-3.72;85.92;100963.28;5014438;28;20440;-67
2021/12/26 10:39:13;;;;;;;0.40;0.30;;;;;;;-3.68;84.92;100961.06;5015581;28;20470;-68
2021/12/26 10:41:42;;;;;;;0.40;0.30;;;;;;;-3.60;84.38;100955.59;5011876;28;20497;-67
2021/12/26 10:44:20;;;;;;;0.40;0.30;;;;;;;-3.50;82.92;100950.75;5032264;28;20493;-67
2021/12/26 10:46:49;;;;;;;0.40;0.30;;;;;;;-3.46;81.39;100951.16;5034197;28;20489;-68
2021/12/26 10:49:23;;;;;;;0.40;0.30;;;;;;;-3.42;78.60;100953.22;5033848;28;20470;-67
2021/12/26 10:51:49;;;;;;;1.02;1.02;;;;;;;-3.32;78.19;100953.66;5033898;28;20446;-64
2021/12/26 10:54:17;;;;;;;0.40;0.30;;;;;;;-3.20;77.61;100955.72;5033814;28;20235;-66
2021/12/26 10:57:03;;;;;;;0.40;0.30;;;;;;;-3.08;76.93;100951.47;5033794;28;20831;-67
2021/12/26 10:59:29;;;;;;;0.40;0.30;;;;;;;-3.02;78.13;100947.19;5033604;28;21027;-67
2021/12/26 11:01:57;;;;;;;0.40;0.30;;;;;;;-2.93;78.02;100948.63;5034062;28;20438;-70
2021/12/26 11:04:24;;;;;;;0.40;0.30;;;;;;;-2.85;77.79;100953.72;5033588;28;20446;-69
2021/12/26 11:07:01;;;;;;;0.40;0.30;;;;;;;-2.76;77.29;100946.38;5033615;28;20454;-69
2021/12/26 11:09:28;;;;;;;0.40;0.30;;;;;;;-2.71;77.01;100933.31;5033292;28;20556;-68
2021/12/26 11:12:03;;;;;;;0.40;0.30;;;;;;;-2.63;76.27;100938.44;5034999;28;20443;-64
2021/12/26 11:14:30;;;;;;;0.40;0.30;;;;;;;-2.60;74.36;100935.38;5032240;28;20475;-67
2021/12/26 11:16:57;;;;;;;0.40;0.30;;;;;;;-2.50;73.22;100943.72;5026780;28;20451;-67
2021/12/26 11:19:41;;;;;;;0.40;0.30;;;;;;;-2.44;70.90;100931.47;5032910;28;20834;-68
2021/12/26 11:22:08;;;;;;;0.40;0.30;;;;;;;-2.38;70.08;100942.06;5033098;28;20807;-68
2021/12/26 11:24:35;;;;;;;0.40;0.30;;;;;;;-2.30;69.68;100941.84;5033281;28;20481;-68
2021/12/26 11:27:02;;;;;;;0.40;0.30;;;;;;;-2.17;69.52;100937.53;5032358;28;20470;-67
2021/12/26 11:29:29;;;;;;;0.40;0.30;;;;;;;-2.01;68.68;100937.06;5031260;28;20463;-67